createdAt,value
2023-02-01T00:01:12.402Z,31.25
2023-02-01T00:03:40.331Z,30.48
2023-02-01T00:06:08.376Z,30.92
2023-02-01T00:08:36.344Z,30.27
2023-02-01T00:11:11.429Z,29.20
2023-02-01T00:13:40.752Z,27.92
2023-02-01T00:16:19.114Z,29.10
2023-02-01T00:18:48.035Z,31.17
2023-02-01T00:21:17.195Z,28.73
2023-02-01T00:23:45.223Z,28.73
2023-02-01T00:26:17.970Z,30.45
2023-02-01T00:28:46.340Z,28.95
2023-02-01T00:31:14.343Z,28.52
2023-02-01T00:33:42.435Z,27.92
2023-02-01T00:36:11.216Z,28.30
2023-02-01T00:38:39.817Z,29.70
2023-02-01T00:41:13.771Z,29.10
2023-02-01T00:43:41.932Z,27.10
2023-02-01T00:46:10.126Z,26.58
2023-02-01T00:48:38.254Z,26.88
2023-02-01T00:51:07.564Z,25.38
2023-02-01T00:53:35.630Z,29.33
2023-02-01T00:56:03.708Z,27.33
2023-02-01T00:58:31.494Z,28.77
2023-02-01T01:01:06.969Z,27.73
2023-02-01T01:03:38.024Z,27.95
2023-02-01T01:06:07.609Z,26.58
2023-02-01T01:08:37.285Z,27.30
2023-02-01T01:11:13.216Z,27.00
2023-02-01T01:13:41.187Z,26.90
2023-02-01T01:16:09.563Z,26.42
2023-02-01T01:18:37.624Z,25.77
2023-02-01T01:21:10.054Z,25.95
2023-02-01T01:23:38.407Z,19.42
2023-02-01T01:26:08.114Z,26.13
2023-02-01T01:28:36.049Z,25.25
2023-02-01T01:31:09.430Z,26.38
2023-02-01T01:33:37.251Z,24.52
2023-02-01T01:36:08.746Z,25.02
2023-02-01T01:38:37.097Z,24.88
2023-02-01T01:41:05.815Z,23.52
2023-02-01T01:43:52.676Z,25.63
2023-02-01T01:46:23.178Z,24.65
2023-02-01T01:48:54.123Z,25.40
2023-02-01T01:51:22.936Z,24.35
2023-02-01T01:53:55.732Z,25.75
2023-02-01T01:56:24.051Z,24.95
2023-02-01T01:58:51.971Z,25.33
2023-02-01T02:01:20.019Z,25.45
2023-02-01T02:03:48.931Z,24.02
2023-02-01T02:06:26.021Z,24.63
2023-02-01T02:08:54.031Z,24.90
2023-02-01T02:11:21.837Z,25.38
2023-02-01T02:13:52.240Z,24.70
2023-02-01T02:16:24.507Z,24.95
2023-02-01T02:19:11.153Z,19.38
2023-02-01T02:21:48.078Z,23.88
2023-02-01T02:24:25.521Z,24.05
2023-02-01T02:27:01.973Z,24.98
2023-02-01T02:29:57.656Z,24.63
2023-02-01T02:32:28.503Z,24.52
2023-02-01T02:35:01.405Z,24.27
2023-02-01T02:37:38.410Z,26.13
2023-02-01T02:40:10.010Z,24.35
2023-02-01T02:43:01.796Z,25.50
2023-02-01T02:45:48.270Z,25.85
2023-02-01T02:48:16.084Z,24.77
2023-02-01T02:51:25.575Z,24.38
2023-02-01T02:54:31.472Z,23.13
2023-02-01T02:57:19.298Z,24.10
2023-02-01T03:00:08.720Z,24.60
2023-02-01T03:02:55.700Z,23.60
2023-02-01T03:05:24.014Z,24.48
2023-02-01T03:07:53.433Z,23.77
2023-02-01T03:10:40.013Z,23.40
2023-02-01T03:13:12.761Z,23.83
2023-02-01T03:15:44.265Z,22.90
2023-02-01T03:18:18.641Z,23.65
2023-02-01T03:20:48.812Z,25.40
2023-02-01T03:23:18.805Z,21.85
2023-02-01T03:25:49.289Z,22.23
2023-02-01T03:28:20.407Z,24.05
2023-02-01T03:30:48.503Z,24.25
2023-02-01T03:33:23.881Z,23.52
2023-02-01T03:35:58.398Z,23.73
2023-02-01T03:38:26.379Z,23.65
2023-02-01T03:41:15.120Z,23.15
2023-02-01T03:43:54.637Z,23.77
2023-02-01T03:46:34.846Z,22.58
2023-02-01T03:49:05.690Z,24.15
2023-02-01T03:51:34.810Z,22.17
2023-02-01T03:54:03.847Z,23.70
2023-02-01T03:56:32.517Z,23.75
2023-02-01T03:59:00.427Z,24.85
2023-02-01T04:01:34.039Z,23.42
2023-02-01T04:04:02.679Z,21.92
2023-02-01T04:06:31.126Z,22.58
2023-02-01T04:09:03.735Z,16.23
2023-02-01T04:11:31.509Z,23.50
2023-02-01T04:13:59.366Z,23.02
2023-02-01T04:16:27.205Z,23.67
2023-02-01T04:18:54.975Z,22.95
2023-02-01T04:21:22.872Z,24.83
2023-02-01T04:23:50.669Z,24.60
2023-02-01T04:26:20.030Z,22.52
2023-02-01T04:28:48.911Z,24.38
2023-02-01T04:31:17.779Z,24.80
2023-02-01T04:33:45.716Z,24.13
2023-02-01T04:36:13.476Z,22.70
2023-02-01T04:38:41.267Z,25.45
2023-02-01T04:41:10.442Z,26.33
2023-02-01T04:43:38.204Z,27.65
2023-02-01T04:46:06.136Z,27.90
2023-02-01T04:48:34.058Z,26.90
2023-02-01T04:51:01.886Z,26.23
2023-02-01T04:53:30.881Z,25.20
2023-02-01T04:55:58.854Z,28.92
2023-02-01T04:58:26.760Z,26.08
2023-02-01T05:00:54.549Z,27.85
2023-02-01T05:03:22.321Z,27.88
2023-02-01T05:05:57.178Z,38.13
2023-02-01T05:08:27.071Z,28.35
2023-02-01T05:10:57.102Z,32.65
2023-02-01T05:13:50.309Z,29.45
2023-02-01T05:16:20.995Z,28.52
2023-02-01T05:18:49.014Z,28.02
2023-02-01T05:21:16.798Z,28.42
2023-02-01T05:24:03.608Z,38.65
2023-02-01T05:26:31.604Z,37.85
2023-02-01T05:29:04.988Z,35.22
2023-02-01T05:31:33.103Z,28.33
2023-02-01T05:34:01.193Z,29.70
2023-02-01T05:36:29.020Z,29.08
2023-02-01T05:38:56.878Z,28.80
2023-02-01T05:41:24.703Z,32.00
2023-02-01T05:43:52.683Z,30.15
2023-02-01T05:46:20.415Z,36.63
2023-02-01T05:48:48.588Z,48.60
2023-02-01T05:51:16.600Z,31.27
2023-02-01T05:53:44.454Z,31.67
2023-02-01T05:56:13.574Z,31.13
2023-02-01T05:58:41.384Z,30.73
2023-02-01T06:01:09.229Z,43.58
2023-02-01T06:03:37.152Z,35.45
2023-02-01T06:06:05.222Z,27.55
2023-02-01T06:08:33.001Z,72.40
2023-02-01T06:11:01.718Z,87.20
2023-02-01T06:13:29.673Z,30.70
2023-02-01T06:15:58.325Z,27.77
2023-02-01T06:18:26.888Z,29.33
2023-02-01T06:20:58.768Z,36.75
2023-02-01T06:23:26.791Z,46.55
2023-02-01T06:26:00.438Z,54.65
2023-02-01T06:28:29.156Z,43.20
2023-02-01T06:30:59.087Z,30.40
2023-02-01T06:33:27.550Z,33.65
2023-02-01T06:35:59.764Z,32.50
2023-02-01T06:38:27.525Z,24.00
2023-02-01T06:40:59.419Z,33.58
2023-02-01T06:43:28.375Z,32.33
2023-02-01T06:46:01.356Z,33.30
2023-02-01T06:48:29.257Z,31.30
2023-02-01T06:50:57.267Z,31.00
2023-02-01T06:53:25.209Z,31.48
2023-02-01T06:55:54.208Z,31.40
2023-02-01T06:58:22.755Z,31.40
2023-02-01T07:00:51.454Z,31.35
2023-02-01T07:03:19.332Z,33.42
2023-02-01T07:05:47.323Z,34.75
2023-02-01T07:08:15.117Z,35.00
2023-02-01T07:10:43.321Z,34.22
2023-02-01T07:13:11.214Z,32.72
2023-02-01T07:15:52.427Z,35.25
2023-02-01T07:18:20.773Z,34.70
2023-02-01T07:20:52.538Z,35.80
2023-02-01T07:23:21.232Z,35.47
2023-02-01T07:25:49.303Z,37.08
2023-02-01T07:28:17.143Z,36.35
2023-02-01T07:30:45.085Z,37.30
2023-02-01T07:33:13.030Z,36.35
2023-02-01T07:35:40.825Z,36.40
2023-02-01T07:38:08.633Z,38.28
2023-02-01T07:40:36.395Z,40.25
2023-02-01T07:43:07.047Z,37.53
2023-02-01T07:45:36.914Z,38.17
2023-02-01T07:48:05.134Z,38.05
2023-02-01T07:50:33.277Z,39.13
2023-02-01T07:53:02.212Z,38.50
2023-02-01T07:55:30.274Z,37.97
2023-02-01T07:58:01.574Z,39.17
2023-02-01T08:00:47.815Z,39.40
2023-02-01T08:03:17.336Z,37.50
2023-02-01T08:05:45.330Z,38.85
2023-02-01T08:08:14.103Z,39.70
2023-02-01T08:10:42.189Z,37.72
2023-02-01T08:13:10.788Z,39.88
2023-02-01T08:15:38.807Z,40.92
2023-02-01T08:18:06.624Z,41.80
2023-02-01T08:20:37.135Z,45.45
2023-02-01T08:23:04.928Z,41.88
2023-02-01T08:25:32.967Z,44.03
2023-02-01T08:28:00.768Z,44.35
2023-02-01T08:30:28.736Z,42.85
2023-02-01T08:32:56.535Z,41.38
2023-02-01T08:35:37.862Z,49.20
2023-02-01T08:38:10.766Z,53.00
2023-02-01T08:40:38.619Z,44.55
2023-02-01T08:43:06.498Z,45.22
2023-02-01T08:45:34.757Z,45.78
2023-02-01T08:48:02.574Z,45.78
2023-02-01T08:50:30.541Z,42.13
2023-02-01T08:52:58.332Z,45.97
2023-02-01T08:55:27.575Z,45.80
2023-02-01T08:57:55.351Z,44.13
2023-02-01T09:00:23.519Z,44.10
2023-02-01T09:02:51.595Z,42.88
2023-02-01T09:05:23.296Z,44.50
2023-02-01T09:07:51.374Z,46.22
2023-02-01T09:10:33.477Z,46.35
2023-02-01T09:15:30.440Z,45.03
2023-02-01T09:17:58.276Z,45.55
2023-02-01T09:20:26.453Z,45.60
2023-02-01T09:22:54.540Z,52.13
2023-02-01T09:25:23.723Z,47.25
2023-02-01T09:27:51.610Z,49.05
2023-02-01T09:30:19.471Z,48.83
2023-02-01T09:32:47.396Z,48.30
2023-02-01T09:35:15.187Z,50.42
2023-02-01T09:37:43.197Z,48.85
2023-02-01T09:40:14.981Z,52.03
2023-02-01T09:42:58.975Z,48.10
2023-02-01T09:45:53.193Z,59.65
2023-02-01T09:48:26.654Z,49.95
2023-02-01T09:50:58.554Z,50.45
2023-02-01T09:53:32.185Z,50.22
2023-02-01T09:56:07.688Z,50.20
2023-02-01T09:58:35.609Z,49.70
2023-02-01T10:01:04.813Z,48.78
2023-02-01T10:03:34.901Z,49.75
2023-02-01T10:06:12.040Z,49.03
2023-02-01T10:09:03.765Z,50.15
2023-02-01T10:11:52.804Z,49.70
2023-02-01T10:14:37.116Z,48.67
2023-02-01T10:17:24.489Z,48.75
2023-02-01T10:20:11.073Z,50.55
2023-02-01T10:23:19.143Z,48.67
2023-02-01T10:25:44.448Z,49.53
2023-02-01T10:28:16.681Z,49.20
2023-02-01T10:30:49.048Z,48.45
2023-02-01T10:33:34.250Z,50.80
2023-02-01T10:36:18.185Z,49.88
2023-02-01T10:38:46.431Z,49.95
2023-02-01T10:41:16.332Z,50.03
2023-02-01T10:43:45.114Z,47.10
2023-02-01T10:46:12.955Z,49.78
2023-02-01T10:48:41.950Z,50.47
2023-02-01T10:51:16.732Z,49.22
2023-02-01T10:53:44.745Z,50.20
2023-02-01T10:56:13.234Z,49.22
2023-02-01T10:58:45.566Z,48.85
2023-02-01T11:01:21.371Z,49.43
2023-02-01T11:03:56.530Z,49.63
2023-02-01T11:06:31.805Z,49.35
2023-02-01T11:09:01.883Z,49.08
2023-02-01T11:11:30.383Z,49.03
2023-02-01T11:13:59.845Z,49.78
2023-02-01T11:16:50.336Z,62.25
2023-02-01T11:19:18.750Z,48.80
2023-02-01T11:21:47.062Z,48.30
2023-02-01T11:24:25.724Z,49.15
2023-02-01T11:26:56.460Z,48.33
2023-02-01T11:29:30.947Z,48.75
2023-02-01T11:32:00.283Z,56.00
2023-02-01T11:34:39.291Z,56.10
2023-02-01T11:37:15.391Z,48.85
2023-02-01T11:39:43.710Z,47.72
2023-02-01T11:42:16.514Z,45.70
2023-02-01T11:44:45.573Z,49.13
2023-02-01T11:47:28.927Z,47.15
2023-02-01T11:49:58.583Z,48.58
2023-02-01T11:52:45.300Z,50.67
2023-02-01T11:55:19.899Z,47.90
2023-02-01T11:57:50.719Z,48.58
2023-02-01T12:00:22.197Z,47.42
2023-02-01T12:02:53.260Z,54.17
2023-02-01T12:05:41.418Z,50.88
2023-02-01T12:08:09.309Z,49.53
2023-02-01T12:10:55.829Z,50.75
2023-02-01T12:13:29.704Z,50.22
2023-02-01T12:16:18.080Z,51.20
2023-02-01T12:18:52.139Z,48.58
2023-02-01T12:21:19.971Z,48.58
2023-02-01T12:24:06.036Z,47.95
2023-02-01T12:26:36.896Z,48.85
2023-02-01T12:29:31.275Z,49.45
2023-02-01T12:32:11.511Z,50.92
2023-02-01T12:34:58.130Z,49.80
2023-02-01T12:37:42.133Z,48.55
2023-02-01T12:40:16.035Z,48.65
2023-02-01T12:42:47.827Z,49.40
2023-02-01T12:45:27.196Z,51.45
2023-02-01T12:48:02.199Z,47.70
2023-02-01T12:50:45.897Z,48.30
2023-02-01T12:53:37.308Z,49.70
2023-02-01T12:56:08.409Z,47.55
2023-02-01T12:58:44.690Z,47.20
2023-02-01T13:01:34.609Z,47.72
2023-02-01T13:04:12.638Z,48.63
2023-02-01T13:06:45.603Z,49.38
2023-02-01T13:09:30.943Z,46.22
2023-02-01T13:12:08.552Z,46.58
2023-02-01T13:14:41.919Z,46.95
2023-02-01T13:19:43.602Z,47.72
2023-02-01T13:22:15.617Z,48.25
2023-02-01T13:24:49.438Z,48.63
2023-02-01T13:27:18.634Z,47.92
2023-02-01T13:30:01.958Z,48.47
2023-02-01T13:33:51.434Z,48.10
2023-02-01T13:35:23.928Z,47.35
2023-02-01T13:37:55.110Z,48.60
2023-02-01T13:40:33.623Z,46.47
2023-02-01T13:43:03.714Z,47.95
2023-02-01T13:45:33.510Z,46.55
2023-02-01T13:48:03.566Z,49.35
2023-02-01T13:50:38.235Z,49.03
2023-02-01T13:53:16.857Z,48.03
2023-02-01T13:55:48.459Z,48.10
2023-02-01T13:58:32.954Z,47.58
2023-02-01T14:01:19.799Z,50.05
2023-02-01T14:03:48.705Z,48.15
2023-02-01T14:06:18.820Z,49.22
2023-02-01T14:08:48.362Z,48.80
2023-02-01T14:11:36.880Z,47.47
2023-02-01T14:14:25.164Z,46.85
2023-02-01T14:16:55.997Z,46.72
2023-02-01T14:19:24.103Z,47.92
2023-02-01T14:22:01.747Z,48.92
2023-02-01T14:24:31.104Z,48.83
2023-02-01T14:27:00.672Z,48.15
2023-02-01T14:29:32.898Z,46.97
2023-02-01T14:32:03.512Z,47.60
2023-02-01T14:34:49.886Z,44.35
2023-02-01T14:37:23.965Z,46.60
2023-02-01T14:39:54.889Z,46.47
2023-02-01T14:42:45.860Z,44.20
2023-02-01T14:45:20.366Z,46.30
2023-02-01T14:47:49.489Z,44.63
2023-02-01T14:50:21.702Z,48.38
2023-02-01T14:52:49.548Z,45.42
2023-02-01T14:55:19.828Z,47.60
2023-02-01T14:57:48.746Z,47.83
2023-02-01T15:00:19.531Z,49.38
2023-02-01T15:02:47.855Z,48.70
2023-02-01T15:05:25.163Z,51.88
2023-02-01T15:07:53.426Z,48.28
2023-02-01T15:10:22.230Z,47.40
2023-02-01T15:12:51.543Z,46.08
2023-02-01T15:15:19.400Z,47.35
2023-02-01T15:17:54.450Z,48.58
2023-02-01T15:20:30.009Z,45.67
2023-02-01T15:23:00.663Z,48.35
2023-02-01T15:25:29.738Z,46.05
2023-02-01T15:27:58.086Z,48.25
2023-02-01T15:30:30.520Z,46.30
2023-02-01T15:33:09.236Z,46.80
2023-02-01T15:35:37.404Z,47.88
2023-02-01T15:38:23.675Z,47.97
2023-02-01T15:41:10.778Z,46.33
2023-02-01T15:43:57.056Z,47.10
2023-02-01T15:46:42.681Z,46.05
2023-02-01T15:49:26.826Z,45.75
2023-02-01T15:51:55.474Z,46.90
2023-02-01T15:54:32.297Z,49.05
2023-02-01T15:57:01.812Z,50.47
2023-02-01T15:59:37.735Z,54.03
2023-02-01T16:02:05.683Z,57.50
2023-02-01T16:04:34.232Z,57.13
2023-02-01T16:07:04.450Z,55.13
2023-02-01T16:09:38.792Z,56.25
2023-02-01T16:12:24.377Z,55.97
2023-02-01T16:14:52.753Z,59.22
2023-02-01T16:17:22.664Z,55.30
2023-02-01T16:19:50.476Z,53.42
2023-02-01T16:22:25.115Z,50.60
2023-02-01T16:24:59.740Z,57.33
2023-02-01T16:27:30.664Z,51.13
2023-02-01T16:29:59.804Z,48.30
2023-02-01T16:32:27.808Z,49.90
2023-02-01T16:34:55.774Z,51.08
2023-02-01T16:37:25.781Z,52.80
2023-02-01T16:39:53.724Z,52.97
2023-02-01T16:42:21.550Z,56.08
2023-02-01T16:44:49.452Z,67.70
2023-02-01T16:47:23.933Z,64.25
2023-02-01T16:49:52.097Z,65.35
2023-02-01T16:52:21.816Z,64.68
2023-02-01T16:54:50.199Z,99.00
2023-02-01T16:57:19.422Z,69.28
2023-02-01T16:59:47.650Z,67.28
2023-02-01T17:02:23.409Z,65.93
2023-02-01T17:04:51.410Z,70.35
2023-02-01T17:07:20.495Z,66.18
2023-02-01T17:09:49.010Z,63.20
2023-02-01T17:12:33.589Z,65.32
2023-02-01T17:15:01.969Z,63.30
2023-02-01T17:17:39.576Z,57.75
2023-02-01T17:20:42.586Z,55.42
2023-02-01T17:23:13.470Z,54.63
2023-02-01T17:25:53.672Z,41.63
2023-02-01T17:28:36.162Z,53.85
2023-02-01T17:31:19.886Z,54.20
2023-02-01T17:34:02.844Z,54.58
2023-02-01T17:36:40.416Z,56.33
2023-02-01T17:39:47.201Z,57.83
2023-02-01T17:42:28.999Z,58.67
2023-02-01T17:45:26.810Z,57.53
2023-02-01T17:48:06.692Z,56.05
2023-02-01T17:50:47.990Z,54.92
2023-02-01T17:53:28.972Z,55.25
2023-02-01T17:56:03.060Z,60.67
2023-02-01T17:58:39.843Z,52.85
2023-02-01T18:01:22.321Z,51.38
2023-02-01T18:03:56.155Z,51.87
2023-02-01T18:06:39.955Z,53.80
2023-02-01T18:09:10.960Z,53.95
2023-02-01T18:11:38.933Z,54.92
2023-02-01T18:14:06.820Z,74.88
2023-02-01T18:16:38.490Z,53.20
2023-02-01T18:19:06.442Z,53.20
2023-02-01T18:21:37.325Z,55.83
2023-02-01T18:24:06.193Z,56.45
2023-02-01T18:26:34.456Z,75.07
2023-02-01T18:29:06.778Z,67.10
2023-02-01T18:31:41.446Z,56.55
2023-02-01T18:34:16.905Z,52.10
2023-02-01T18:36:44.795Z,58.22
2023-02-01T18:39:12.689Z,75.82
2023-02-01T18:41:41.307Z,83.15
2023-02-01T18:44:19.329Z,64.57
2023-02-01T18:46:47.193Z,53.08
2023-02-01T18:49:18.120Z,62.55
2023-02-01T18:51:47.189Z,61.50
2023-02-01T18:54:15.717Z,65.88
2023-02-01T18:56:44.906Z,61.20
2023-02-01T18:59:13.039Z,66.18
2023-02-01T19:01:40.892Z,68.25
2023-02-01T19:04:17.478Z,70.82
2023-02-01T19:09:37.442Z,55.20
2023-02-01T19:12:05.358Z,58.38
2023-02-01T19:14:33.844Z,58.35
2023-02-01T19:17:19.349Z,56.83
2023-02-01T19:20:09.052Z,57.80
2023-02-01T19:22:41.173Z,57.08
2023-02-01T19:25:09.874Z,57.42
2023-02-01T19:27:37.941Z,90.82
2023-02-01T19:30:06.429Z,69.20
2023-02-01T19:32:34.381Z,58.42
2023-02-01T19:35:02.434Z,61.47
2023-02-01T19:37:30.408Z,58.58
2023-02-01T19:40:01.403Z,61.20
2023-02-01T19:42:30.315Z,59.30
2023-02-01T19:44:59.307Z,62.65
2023-02-01T19:47:27.112Z,60.60
2023-02-01T19:49:55.201Z,79.90
2023-02-01T19:52:23.042Z,80.43
2023-02-01T19:54:50.974Z,75.95
2023-02-01T19:57:20.412Z,79.43
2023-02-01T19:59:48.601Z,72.70
2023-02-01T20:02:47.246Z,66.57
2023-02-01T20:05:15.520Z,62.53
2023-02-01T20:07:43.326Z,60.67
2023-02-01T20:10:11.424Z,67.28
2023-02-01T20:12:40.257Z,80.65
2023-02-01T20:15:08.399Z,81.78
2023-02-01T20:17:36.771Z,70.18
2023-02-01T20:20:05.425Z,95.85
2023-02-01T20:22:33.721Z,72.05
2023-02-01T20:25:02.714Z,62.67
2023-02-01T20:27:31.514Z,62.45
2023-02-01T20:29:59.913Z,62.28
2023-02-01T20:32:28.005Z,61.88
2023-02-01T20:34:55.768Z,62.35
2023-02-01T20:37:23.783Z,60.55
2023-02-01T20:39:52.007Z,62.70
2023-02-01T20:42:19.878Z,62.45
2023-02-01T20:44:48.167Z,62.03
2023-02-01T20:47:18.155Z,71.68
2023-02-01T20:49:46.072Z,63.92
2023-02-01T20:52:14.366Z,61.60
2023-02-01T20:54:42.217Z,62.97
2023-02-01T20:57:10.203Z,65.28
2023-02-01T20:59:38.049Z,63.97
2023-02-01T21:02:05.864Z,62.53
2023-02-01T21:04:34.382Z,73.13
2023-02-01T21:07:03.237Z,66.28
2023-02-01T21:09:31.040Z,64.72
2023-02-01T21:11:59.414Z,63.08
2023-02-01T21:14:27.376Z,62.45
2023-02-01T21:16:55.281Z,63.03
2023-02-01T21:19:25.313Z,59.80
2023-02-01T21:21:53.516Z,56.65
2023-02-01T21:24:21.390Z,57.65
2023-02-01T21:26:49.283Z,58.03
2023-02-01T21:29:17.335Z,57.58
2023-02-01T21:31:45.173Z,58.58
2023-02-01T21:34:13.038Z,53.10
2023-02-01T21:36:40.794Z,52.97
2023-02-01T21:39:11.047Z,51.88
2023-02-01T21:41:58.117Z,53.85
2023-02-01T21:44:25.911Z,56.13
2023-02-01T21:46:55.643Z,54.72
2023-02-01T21:49:26.149Z,55.63
2023-02-01T21:51:53.918Z,58.45
2023-02-01T21:54:21.832Z,57.55
2023-02-01T21:56:49.634Z,55.13
2023-02-01T21:59:17.596Z,54.50
2023-02-01T22:01:45.428Z,75.05
2023-02-01T22:04:13.460Z,71.88
2023-02-01T22:06:42.761Z,57.67
2023-02-01T22:09:19.480Z,58.45
2023-02-01T22:11:48.922Z,60.78
2023-02-01T22:14:16.877Z,58.75
2023-02-01T22:16:45.226Z,56.15
2023-02-01T22:19:14.124Z,55.92
2023-02-01T22:21:42.692Z,57.70
2023-02-01T22:24:11.619Z,59.38
2023-02-01T22:26:39.713Z,58.72
2023-02-01T22:29:08.869Z,58.80
2023-02-01T22:31:36.861Z,60.78
2023-02-01T22:34:04.942Z,60.00
2023-02-01T22:36:32.987Z,59.80
2023-02-01T22:39:00.985Z,59.03
2023-02-01T22:41:28.799Z,57.25
2023-02-01T22:43:56.804Z,55.47
2023-02-01T22:46:28.324Z,55.85
2023-02-01T22:48:56.298Z,57.42
2023-02-01T22:51:28.325Z,56.45
2023-02-01T22:54:00.035Z,56.88
2023-02-01T22:56:30.264Z,56.50
2023-02-01T22:58:59.458Z,57.05
2023-02-01T23:01:28.995Z,55.70
2023-02-01T23:03:57.776Z,57.90
2023-02-01T23:06:26.056Z,56.50
2023-02-01T23:09:04.802Z,53.55
2023-02-01T23:11:32.548Z,53.17
2023-02-01T23:14:00.605Z,52.95
2023-02-01T23:16:28.722Z,51.78
2023-02-01T23:18:56.853Z,50.88
2023-02-01T23:21:24.624Z,51.92
2023-02-01T23:23:54.457Z,49.72
2023-02-01T23:26:23.179Z,50.22
2023-02-01T23:28:54.159Z,50.63
2023-02-01T23:31:23.040Z,49.50
2023-02-01T23:33:54.801Z,46.85
2023-02-01T23:36:23.472Z,46.88
2023-02-01T23:38:51.765Z,47.15
2023-02-01T23:41:20.233Z,47.78
2023-02-01T23:44:00.776Z,46.53
2023-02-01T23:46:55.002Z,46.25
2023-02-01T23:49:22.742Z,46.22
2023-02-01T23:51:53.293Z,45.70
2023-02-01T23:54:22.711Z,45.40
2023-02-01T23:56:50.919Z,47.10
2023-02-01T23:59:19.875Z,45.00
